sensor_id;sensor_type;location;lat;lon;timestamp;temperature;humidity
21678;DHT22;11000;50.360;7.582;2023-08-20T00:02:11;22.20;99.90
21678;DHT22;11000;50.360;7.582;2023-08-20T00:04:35;22.20;99.90
21678;DHT22;11000;50.360;7.582;2023-08-20T00:06:56;22.20;99.90
21678;DHT22;11000;50.360;7.582;2023-08-20T00:09:17;22.20;99.90
21678;DHT22;11000;50.360;7.582;2023-08-20T00:11:37;22.20;99.90
21678;DHT22;11000;50.360;7.582;2023-08-20T00:13:58;22.20;99.90
21678;DHT22;11000;50.360;7.582;2023-08-20T00:16:18;22.20;99.90
21678;DHT22;11000;50.360;7.582;2023-08-20T00:18:39;22.10;99.90
21678;DHT22;11000;50.360;7.582;2023-08-20T00:21:00;22.10;99.90
21678;DHT22;11000;50.360;7.582;2023-08-20T00:23:21;22.10;99.90
21678;DHT22;11000;50.360;7.582;2023-08-20T00:25:43;22.20;99.90
21678;DHT22;11000;50.360;7.582;2023-08-20T00:28:04;22.20;99.90
21678;DHT22;11000;50.360;7.582;2023-08-20T00:30:25;22.20;99.90
21678;DHT22;11000;50.360;7.582;2023-08-20T00:32:45;22.10;99.90
21678;DHT22;11000;50.360;7.582;2023-08-20T00:35:06;21.90;99.90
21678;DHT22;11000;50.360;7.582;2023-08-20T00:37:30;21.90;99.90
21678;DHT22;11000;50.360;7.582;2023-08-20T00:39:51;21.80;99.90
21678;DHT22;11000;50.360;7.582;2023-08-20T00:42:11;21.80;99.90
21678;DHT22;11000;50.360;7.582;2023-08-20T00:44:34;21.90;99.90
21678;DHT22;11000;50.360;7.582;2023-08-20T00:46:55;21.90;99.90
21678;DHT22;11000;50.360;7.582;2023-08-20T00:49:16;21.80;99.90
21678;DHT22;11000;50.360;7.582;2023-08-20T00:51:38;21.70;99.90
21678;DHT22;11000;50.360;7.582;2023-08-20T00:53:59;21.70;99.90
21678;DHT22;11000;50.360;7.582;2023-08-20T00:56:20;21.70;99.90
21678;DHT22;11000;50.360;7.582;2023-08-20T00:58:41;21.70;99.90
21678;DHT22;11000;50.360;7.582;2023-08-20T01:01:02;21.80;99.90
21678;DHT22;11000;50.360;7.582;2023-08-20T01:03:23;21.80;99.90
21678;DHT22;11000;50.360;7.582;2023-08-20T01:05:50;21.80;99.90
21678;DHT22;11000;50.360;7.582;2023-08-20T01:08:26;21.80;99.90
21678;DHT22;11000;50.360;7.582;2023-08-20T01:11:00;21.80;99.90
21678;DHT22;11000;50.360;7.582;2023-08-20T01:13:21;21.80;99.90
21678;DHT22;11000;50.360;7.582;2023-08-20T01:15:42;21.80;99.90
21678;DHT22;11000;50.360;7.582;2023-08-20T01:18:03;21.80;99.90
21678;DHT22;11000;50.360;7.582;2023-08-20T01:20:26;21.70;99.90
21678;DHT22;11000;50.360;7.582;2023-08-20T01:22:59;21.70;99.90
21678;DHT22;11000;50.360;7.582;2023-08-20T01:28:30;21.70;99.90
21678;DHT22;11000;50.360;7.582;2023-08-20T01:30:51;21.70;99.90
21678;DHT22;11000;50.360;7.582;2023-08-20T01:33:13;21.70;99.90
21678;DHT22;11000;50.360;7.582;2023-08-20T01:35:33;21.60;99.90
21678;DHT22;11000;50.360;7.582;2023-08-20T01:37:54;21.60;99.90
21678;DHT22;11000;50.360;7.582;2023-08-20T01:40:14;21.60;99.90
21678;DHT22;11000;50.360;7.582;2023-08-20T01:42:35;21.60;99.90
21678;DHT22;11000;50.360;7.582;2023-08-20T01:44:56;21.60;99.90
21678;DHT22;11000;50.360;7.582;2023-08-20T01:47:16;21.50;99.90
21678;DHT22;11000;50.360;7.582;2023-08-20T01:49:37;21.50;99.90
21678;DHT22;11000;50.360;7.582;2023-08-20T01:51:57;21.60;99.90
21678;DHT22;11000;50.360;7.582;2023-08-20T01:54:18;21.60;99.90
21678;DHT22;11000;50.360;7.582;2023-08-20T01:56:38;21.60;99.90
21678;DHT22;11000;50.360;7.582;2023-08-20T01:58:59;21.60;99.90
21678;DHT22;11000;50.360;7.582;2023-08-20T02:01:19;21.60;99.90
21678;DHT22;11000;50.360;7.582;2023-08-20T02:03:40;21.60;99.90
21678;DHT22;11000;50.360;7.582;2023-08-20T02:06:00;21.70;99.90
21678;DHT22;11000;50.360;7.582;2023-08-20T02:08:21;21.70;99.90
21678;DHT22;11000;50.360;7.582;2023-08-20T02:10:41;21.60;99.90
21678;DHT22;11000;50.360;7.582;2023-08-20T02:13:02;21.70;99.90
21678;DHT22;11000;50.360;7.582;2023-08-20T02:15:24;21.70;99.90
21678;DHT22;11000;50.360;7.582;2023-08-20T02:17:44;21.70;99.90
21678;DHT22;11000;50.360;7.582;2023-08-20T02:20:05;21.70;99.90
21678;DHT22;11000;50.360;7.582;2023-08-20T02:22:27;21.60;99.90
21678;DHT22;11000;50.360;7.582;2023-08-20T02:24:49;21.60;99.90
21678;DHT22;11000;50.360;7.582;2023-08-20T02:27:10;21.60;99.90
21678;DHT22;11000;50.360;7.582;2023-08-20T02:29:30;21.70;99.90
21678;DHT22;11000;50.360;7.582;2023-08-20T02:31:51;21.70;99.90
21678;DHT22;11000;50.360;7.582;2023-08-20T02:34:11;21.70;99.90
21678;DHT22;11000;50.360;7.582;2023-08-20T02:36:32;21.70;99.90
21678;DHT22;11000;50.360;7.582;2023-08-20T02:38:52;21.60;99.90
21678;DHT22;11000;50.360;7.582;2023-08-20T02:41:13;21.60;99.90
21678;DHT22;11000;50.360;7.582;2023-08-20T02:43:33;21.60;99.90
21678;DHT22;11000;50.360;7.582;2023-08-20T02:45:54;21.60;99.90
21678;DHT22;11000;50.360;7.582;2023-08-20T02:48:15;21.60;99.90
21678;DHT22;11000;50.360;7.582;2023-08-20T02:50:36;21.70;99.90
21678;DHT22;11000;50.360;7.582;2023-08-20T02:52:56;21.70;99.90
21678;DHT22;11000;50.360;7.582;2023-08-20T02:55:16;21.70;99.90
21678;DHT22;11000;50.360;7.582;2023-08-20T02:57:37;21.70;99.90
21678;DHT22;11000;50.360;7.582;2023-08-20T02:59:57;21.70;99.90
21678;DHT22;11000;50.360;7.582;2023-08-20T03:02:18;21.70;99.90
21678;DHT22;11000;50.360;7.582;2023-08-20T03:04:38;21.70;99.90
21678;DHT22;11000;50.360;7.582;2023-08-20T03:06:59;21.70;99.90
21678;DHT22;11000;50.360;7.582;2023-08-20T03:09:19;21.70;99.90
21678;DHT22;11000;50.360;7.582;2023-08-20T03:11:40;21.80;99.90
21678;DHT22;11000;50.360;7.582;2023-08-20T03:14:00;21.70;99.90
21678;DHT22;11000;50.360;7.582;2023-08-20T03:16:21;21.80;99.90
21678;DHT22;11000;50.360;7.582;2023-08-20T03:18:41;21.60;99.90
21678;DHT22;11000;50.360;7.582;2023-08-20T03:21:02;21.50;99.90
21678;DHT22;11000;50.360;7.582;2023-08-20T03:23:23;21.50;99.90
21678;DHT22;11000;50.360;7.582;2023-08-20T03:25:44;21.50;99.90
21678;DHT22;11000;50.360;7.582;2023-08-20T03:28:04;21.60;99.90
21678;DHT22;11000;50.360;7.582;2023-08-20T03:30:25;21.60;99.90
21678;DHT22;11000;50.360;7.582;2023-08-20T03:32:45;21.60;99.90
21678;DHT22;11000;50.360;7.582;2023-08-20T03:35:06;21.60;99.90
21678;DHT22;11000;50.360;7.582;2023-08-20T03:37:27;21.60;99.90
21678;DHT22;11000;50.360;7.582;2023-08-20T03:39:47;21.70;99.90
21678;DHT22;11000;50.360;7.582;2023-08-20T03:42:08;21.70;99.90
21678;DHT22;11000;50.360;7.582;2023-08-20T03:44:28;21.70;99.90
21678;DHT22;11000;50.360;7.582;2023-08-20T03:46:50;21.70;99.90
21678;DHT22;11000;50.360;7.582;2023-08-20T03:49:10;21.60;99.90
21678;DHT22;11000;50.360;7.582;2023-08-20T03:51:31;21.60;99.90
21678;DHT22;11000;50.360;7.582;2023-08-20T03:53:51;21.60;99.90
21678;DHT22;11000;50.360;7.582;2023-08-20T03:56:12;21.60;99.90
21678;DHT22;11000;50.360;7.582;2023-08-20T03:58:32;21.60;99.90
21678;DHT22;11000;50.360;7.582;2023-08-20T04:00:53;21.70;99.90
21678;DHT22;11000;50.360;7.582;2023-08-20T04:03:14;21.60;99.90
21678;DHT22;11000;50.360;7.582;2023-08-20T04:05:39;21.70;99.90
21678;DHT22;11000;50.360;7.582;2023-08-20T04:08:00;21.70;99.90
21678;DHT22;11000;50.360;7.582;2023-08-20T04:10:20;21.70;99.90
21678;DHT22;11000;50.360;7.582;2023-08-20T04:12:41;21.70;99.90
21678;DHT22;11000;50.360;7.582;2023-08-20T04:15:01;21.70;99.90
21678;DHT22;11000;50.360;7.582;2023-08-20T04:17:22;21.70;99.90
21678;DHT22;11000;50.360;7.582;2023-08-20T04:19:42;21.70;99.90
21678;DHT22;11000;50.360;7.582;2023-08-20T04:22:03;21.70;99.90
21678;DHT22;11000;50.360;7.582;2023-08-20T04:24:23;21.70;99.90
21678;DHT22;11000;50.360;7.582;2023-08-20T04:26:44;21.70;99.90
21678;DHT22;11000;50.360;7.582;2023-08-20T04:29:04;21.80;99.90
21678;DHT22;11000;50.360;7.582;2023-08-20T04:31:26;21.80;99.90
21678;DHT22;11000;50.360;7.582;2023-08-20T04:33:46;21.80;99.90
21678;DHT22;11000;50.360;7.582;2023-08-20T04:36:07;21.80;99.90
21678;DHT22;11000;50.360;7.582;2023-08-20T04:38:27;21.80;99.90
21678;DHT22;11000;50.360;7.582;2023-08-20T04:40:48;21.80;99.90
21678;DHT22;11000;50.360;7.582;2023-08-20T04:43:09;21.80;99.90
21678;DHT22;11000;50.360;7.582;2023-08-20T04:45:29;21.70;99.90
21678;DHT22;11000;50.360;7.582;2023-08-20T04:47:50;21.70;99.90
21678;DHT22;11000;50.360;7.582;2023-08-20T04:50:10;21.70;99.90
21678;DHT22;11000;50.360;7.582;2023-08-20T04:52:30;21.70;99.90
21678;DHT22;11000;50.360;7.582;2023-08-20T04:54:51;21.70;99.90
21678;DHT22;11000;50.360;7.582;2023-08-20T04:57:11;21.70;99.90
21678;DHT22;11000;50.360;7.582;2023-08-20T04:59:32;21.70;99.90
21678;DHT22;11000;50.360;7.582;2023-08-20T05:01:53;21.70;99.90
21678;DHT22;11000;50.360;7.582;2023-08-20T05:04:13;21.70;99.90
21678;DHT22;11000;50.360;7.582;2023-08-20T05:06:34;21.70;99.90
21678;DHT22;11000;50.360;7.582;2023-08-20T05:08:54;21.70;99.90
21678;DHT22;11000;50.360;7.582;2023-08-20T05:11:15;21.60;99.90
21678;DHT22;11000;50.360;7.582;2023-08-20T05:13:35;21.60;99.90
21678;DHT22;11000;50.360;7.582;2023-08-20T05:15:56;21.50;99.90
21678;DHT22;11000;50.360;7.582;2023-08-20T05:18:16;21.50;99.90
21678;DHT22;11000;50.360;7.582;2023-08-20T05:20:37;21.40;99.90
21678;DHT22;11000;50.360;7.582;2023-08-20T05:22:57;21.40;99.90
21678;DHT22;11000;50.360;7.582;2023-08-20T05:25:18;21.40;99.90
21678;DHT22;11000;50.360;7.582;2023-08-20T05:27:38;21.40;99.90
21678;DHT22;11000;50.360;7.582;2023-08-20T05:29:59;21.40;99.90
21678;DHT22;11000;50.360;7.582;2023-08-20T05:32:19;21.40;99.90
21678;DHT22;11000;50.360;7.582;2023-08-20T05:34:40;21.50;99.90
21678;DHT22;11000;50.360;7.582;2023-08-20T05:37:00;21.40;99.90
21678;DHT22;11000;50.360;7.582;2023-08-20T05:39:21;21.40;99.90
21678;DHT22;11000;50.360;7.582;2023-08-20T05:41:43;21.30;99.90
21678;DHT22;11000;50.360;7.582;2023-08-20T05:44:04;21.40;99.90
21678;DHT22;11000;50.360;7.582;2023-08-20T05:46:24;21.40;99.90
21678;DHT22;11000;50.360;7.582;2023-08-20T05:48:45;21.40;99.90
21678;DHT22;11000;50.360;7.582;2023-08-20T05:51:05;21.40;99.90
21678;DHT22;11000;50.360;7.582;2023-08-20T05:53:26;21.50;99.90
21678;DHT22;11000;50.360;7.582;2023-08-20T05:55:46;21.50;99.90
21678;DHT22;11000;50.360;7.582;2023-08-20T05:58:07;21.50;99.90
21678;DHT22;11000;50.360;7.582;2023-08-20T06:00:27;21.50;99.90
21678;DHT22;11000;50.360;7.582;2023-08-20T06:02:48;21.50;99.90
21678;DHT22;11000;50.360;7.582;2023-08-20T06:05:09;21.50;99.90
21678;DHT22;11000;50.360;7.582;2023-08-20T06:07:29;21.60;99.90
21678;DHT22;11000;50.360;7.582;2023-08-20T06:09:50;21.60;99.90
21678;DHT22;11000;50.360;7.582;2023-08-20T06:12:10;21.60;99.90
21678;DHT22;11000;50.360;7.582;2023-08-20T06:14:31;21.70;99.90
21678;DHT22;11000;50.360;7.582;2023-08-20T06:16:51;21.70;99.90
21678;DHT22;11000;50.360;7.582;2023-08-20T06:19:12;21.70;99.90
21678;DHT22;11000;50.360;7.582;2023-08-20T06:21:32;21.70;99.90
21678;DHT22;11000;50.360;7.582;2023-08-20T06:23:53;21.60;99.90
21678;DHT22;11000;50.360;7.582;2023-08-20T06:26:13;21.40;99.90
21678;DHT22;11000;50.360;7.582;2023-08-20T06:28:34;21.40;99.90
21678;DHT22;11000;50.360;7.582;2023-08-20T06:30:54;21.40;99.90
21678;DHT22;11000;50.360;7.582;2023-08-20T06:33:15;21.50;99.90
21678;DHT22;11000;50.360;7.582;2023-08-20T06:35:36;21.50;99.90
21678;DHT22;11000;50.360;7.582;2023-08-20T06:37:56;21.60;99.90
21678;DHT22;11000;50.360;7.582;2023-08-20T06:40:17;21.70;99.90
21678;DHT22;11000;50.360;7.582;2023-08-20T06:42:37;21.80;99.90
21678;DHT22;11000;50.360;7.582;2023-08-20T06:44:58;21.80;99.90
21678;DHT22;11000;50.360;7.582;2023-08-20T06:47:18;21.90;99.90
21678;DHT22;11000;50.360;7.582;2023-08-20T06:49:39;22.00;99.90
21678;DHT22;11000;50.360;7.582;2023-08-20T06:51:59;22.10;99.90
21678;DHT22;11000;50.360;7.582;2023-08-20T06:54:20;22.10;99.90
21678;DHT22;11000;50.360;7.582;2023-08-20T06:56:40;22.10;99.90
21678;DHT22;11000;50.360;7.582;2023-08-20T06:59:01;22.10;99.90
21678;DHT22;11000;50.360;7.582;2023-08-20T07:01:23;22.10;99.90
21678;DHT22;11000;50.360;7.582;2023-08-20T07:03:44;22.10;99.90
21678;DHT22;11000;50.360;7.582;2023-08-20T07:06:05;22.20;99.90
21678;DHT22;11000;50.360;7.582;2023-08-20T07:08:25;22.30;99.90
21678;DHT22;11000;50.360;7.582;2023-08-20T07:10:46;22.30;99.90
21678;DHT22;11000;50.360;7.582;2023-08-20T07:13:10;22.30;99.90
21678;DHT22;11000;50.360;7.582;2023-08-20T07:15:31;22.40;99.90
21678;DHT22;11000;50.360;7.582;2023-08-20T07:17:51;22.40;99.90
21678;DHT22;11000;50.360;7.582;2023-08-20T07:20:13;22.50;99.90
21678;DHT22;11000;50.360;7.582;2023-08-20T07:22:33;22.60;99.90
21678;DHT22;11000;50.360;7.582;2023-08-20T07:24:54;22.70;99.90
21678;DHT22;11000;50.360;7.582;2023-08-20T07:27:15;22.80;99.90
21678;DHT22;11000;50.360;7.582;2023-08-20T07:29:35;22.90;99.90
21678;DHT22;11000;50.360;7.582;2023-08-20T07:31:56;23.00;99.90
21678;DHT22;11000;50.360;7.582;2023-08-20T07:34:17;23.30;99.90
21678;DHT22;11000;50.360;7.582;2023-08-20T07:36:38;23.70;99.90
21678;DHT22;11000;50.360;7.582;2023-08-20T07:39:02;24.10;99.90
21678;DHT22;11000;50.360;7.582;2023-08-20T07:41:23;24.30;99.90
21678;DHT22;11000;50.360;7.582;2023-08-20T07:43:44;24.80;99.90
21678;DHT22;11000;50.360;7.582;2023-08-20T07:46:06;25.50;99.90
21678;DHT22;11000;50.360;7.582;2023-08-20T07:48:27;25.70;99.90
21678;DHT22;11000;50.360;7.582;2023-08-20T07:50:47;25.90;99.90
21678;DHT22;11000;50.360;7.582;2023-08-20T07:53:08;25.50;99.90
21678;DHT22;11000;50.360;7.582;2023-08-20T07:55:28;25.50;99.90
21678;DHT22;11000;50.360;7.582;2023-08-20T07:57:49;25.70;99.90
21678;DHT22;11000;50.360;7.582;2023-08-20T08:00:10;26.00;99.90
21678;DHT22;11000;50.360;7.582;2023-08-20T08:02:31;26.20;99.90
21678;DHT22;11000;50.360;7.582;2023-08-20T08:04:52;26.70;99.90
21678;DHT22;11000;50.360;7.582;2023-08-20T08:07:12;27.30;99.90
21678;DHT22;11000;50.360;7.582;2023-08-20T08:09:32;27.70;99.90
21678;DHT22;11000;50.360;7.582;2023-08-20T08:11:53;28.00;99.90
21678;DHT22;11000;50.360;7.582;2023-08-20T08:14:14;27.90;99.90
21678;DHT22;11000;50.360;7.582;2023-08-20T08:16:34;27.80;99.90
21678;DHT22;11000;50.360;7.582;2023-08-20T08:18:55;28.10;99.90
21678;DHT22;11000;50.360;7.582;2023-08-20T08:21:15;28.30;99.90
21678;DHT22;11000;50.360;7.582;2023-08-20T08:23:36;28.30;99.90
21678;DHT22;11000;50.360;7.582;2023-08-20T08:25:56;28.50;99.90
21678;DHT22;11000;50.360;7.582;2023-08-20T08:28:17;28.90;99.90
21678;DHT22;11000;50.360;7.582;2023-08-20T08:30:38;28.90;99.90
21678;DHT22;11000;50.360;7.582;2023-08-20T08:33:00;28.90;99.90
21678;DHT22;11000;50.360;7.582;2023-08-20T08:35:21;28.80;99.90
21678;DHT22;11000;50.360;7.582;2023-08-20T08:37:43;28.60;99.90
21678;DHT22;11000;50.360;7.582;2023-08-20T08:40:05;28.80;99.90
21678;DHT22;11000;50.360;7.582;2023-08-20T08:42:27;28.20;99.90
21678;DHT22;11000;50.360;7.582;2023-08-20T08:44:48;28.20;99.90
21678;DHT22;11000;50.360;7.582;2023-08-20T08:47:09;28.20;99.90
21678;DHT22;11000;50.360;7.582;2023-08-20T08:49:33;28.00;99.90
21678;DHT22;11000;50.360;7.582;2023-08-20T08:51:56;28.20;99.90
21678;DHT22;11000;50.360;7.582;2023-08-20T08:54:18;27.70;99.90
21678;DHT22;11000;50.360;7.582;2023-08-20T08:56:39;28.00;99.90
21678;DHT22;11000;50.360;7.582;2023-08-20T08:59:00;28.20;99.90
21678;DHT22;11000;50.360;7.582;2023-08-20T09:01:21;28.60;99.90
21678;DHT22;11000;50.360;7.582;2023-08-20T09:03:41;28.80;99.90
21678;DHT22;11000;50.360;7.582;2023-08-20T09:06:08;29.00;99.90
21678;DHT22;11000;50.360;7.582;2023-08-20T09:08:30;28.90;99.90
21678;DHT22;11000;50.360;7.582;2023-08-20T09:10:52;28.30;99.90
21678;DHT22;11000;50.360;7.582;2023-08-20T09:13:13;28.50;99.90
21678;DHT22;11000;50.360;7.582;2023-08-20T09:15:33;28.70;99.90
21678;DHT22;11000;50.360;7.582;2023-08-20T09:17:55;28.10;99.90
21678;DHT22;11000;50.360;7.582;2023-08-20T09:20:16;27.60;99.90
21678;DHT22;11000;50.360;7.582;2023-08-20T09:22:36;27.60;99.90
21678;DHT22;11000;50.360;7.582;2023-08-20T09:24:57;27.60;99.90
21678;DHT22;11000;50.360;7.582;2023-08-20T09:27:18;27.30;99.90
21678;DHT22;11000;50.360;7.582;2023-08-20T09:29:48;27.10;99.90
21678;DHT22;11000;50.360;7.582;2023-08-20T09:32:20;27.50;99.90
21678;DHT22;11000;50.360;7.582;2023-08-20T09:34:41;28.10;99.90
21678;DHT22;11000;50.360;7.582;2023-08-20T09:37:02;28.30;99.90
21678;DHT22;11000;50.360;7.582;2023-08-20T09:39:23;28.30;99.90
21678;DHT22;11000;50.360;7.582;2023-08-20T09:41:46;28.30;99.90
21678;DHT22;11000;50.360;7.582;2023-08-20T09:44:09;28.80;99.90
21678;DHT22;11000;50.360;7.582;2023-08-20T09:46:31;29.20;99.90
21678;DHT22;11000;50.360;7.582;2023-08-20T09:48:56;29.50;99.90
21678;DHT22;11000;50.360;7.582;2023-08-20T09:51:29;29.40;99.90
21678;DHT22;11000;50.360;7.582;2023-08-20T09:56:27;30.10;99.90
21678;DHT22;11000;50.360;7.582;2023-08-20T09:58:49;30.20;99.90
21678;DHT22;11000;50.360;7.582;2023-08-20T10:01:12;30.00;99.90
21678;DHT22;11000;50.360;7.582;2023-08-20T10:03:33;29.90;99.90
21678;DHT22;11000;50.360;7.582;2023-08-20T10:05:54;30.20;99.90
21678;DHT22;11000;50.360;7.582;2023-08-20T10:08:15;30.30;99.90
21678;DHT22;11000;50.360;7.582;2023-08-20T10:10:37;30.20;99.90
21678;DHT22;11000;50.360;7.582;2023-08-20T10:12:57;29.80;99.90
21678;DHT22;11000;50.360;7.582;2023-08-20T10:15:18;30.20;99.90
21678;DHT22;11000;50.360;7.582;2023-08-20T10:17:41;30.60;99.90
21678;DHT22;11000;50.360;7.582;2023-08-20T10:20:03;29.70;99.90
21678;DHT22;11000;50.360;7.582;2023-08-20T10:22:38;29.50;99.90
21678;DHT22;11000;50.360;7.582;2023-08-20T10:25:00;29.80;99.90
21678;DHT22;11000;50.360;7.582;2023-08-20T10:27:28;30.00;99.90
21678;DHT22;11000;50.360;7.582;2023-08-20T10:29:53;29.80;99.90
21678;DHT22;11000;50.360;7.582;2023-08-20T10:32:14;29.50;99.90
21678;DHT22;11000;50.360;7.582;2023-08-20T10:34:40;29.70;99.90
21678;DHT22;11000;50.360;7.582;2023-08-20T10:37:08;29.70;99.90
21678;DHT22;11000;50.360;7.582;2023-08-20T10:39:29;30.10;99.90
21678;DHT22;11000;50.360;7.582;2023-08-20T10:42:08;30.20;99.90
21678;DHT22;11000;50.360;7.582;2023-08-20T10:45:01;30.30;99.90
21678;DHT22;11000;50.360;7.582;2023-08-20T10:47:44;30.50;99.90
21678;DHT22;11000;50.360;7.582;2023-08-20T10:50:05;31.00;99.90
21678;DHT22;11000;50.360;7.582;2023-08-20T10:52:30;31.40;99.90
21678;DHT22;11000;50.360;7.582;2023-08-20T10:54:50;31.50;99.90
21678;DHT22;11000;50.360;7.582;2023-08-20T10:57:13;31.80;99.90
21678;DHT22;11000;50.360;7.582;2023-08-20T10:59:39;32.10;99.90
21678;DHT22;11000;50.360;7.582;2023-08-20T11:02:01;32.20;99.90
21678;DHT22;11000;50.360;7.582;2023-08-20T11:04:31;32.30;99.90
21678;DHT22;11000;50.360;7.582;2023-08-20T11:06:57;32.00;99.90
21678;DHT22;11000;50.360;7.582;2023-08-20T11:09:18;32.40;99.90
21678;DHT22;11000;50.360;7.582;2023-08-20T11:11:39;32.40;99.90
21678;DHT22;11000;50.360;7.582;2023-08-20T11:14:11;32.50;99.90
21678;DHT22;11000;50.360;7.582;2023-08-20T11:16:35;32.80;99.90
21678;DHT22;11000;50.360;7.582;2023-08-20T11:18:57;32.80;99.90
21678;DHT22;11000;50.360;7.582;2023-08-20T11:21:18;32.40;99.90
21678;DHT22;11000;50.360;7.582;2023-08-20T11:23:39;32.70;99.90
21678;DHT22;11000;50.360;7.582;2023-08-20T11:26:03;31.90;98.80
21678;DHT22;11000;50.360;7.582;2023-08-20T11:28:25;32.30;97.00
21678;DHT22;11000;50.360;7.582;2023-08-20T11:30:46;31.60;99.90
21678;DHT22;11000;50.360;7.582;2023-08-20T11:33:07;31.80;99.90
21678;DHT22;11000;50.360;7.582;2023-08-20T11:35:28;31.30;99.90
21678;DHT22;11000;50.360;7.582;2023-08-20T11:37:50;31.00;99.90
21678;DHT22;11000;50.360;7.582;2023-08-20T11:40:11;32.00;99.90
21678;DHT22;11000;50.360;7.582;2023-08-20T11:42:31;32.70;98.20
21678;DHT22;11000;50.360;7.582;2023-08-20T11:44:55;33.00;96.80
21678;DHT22;11000;50.360;7.582;2023-08-20T11:47:17;32.80;96.70
21678;DHT22;11000;50.360;7.582;2023-08-20T11:49:37;33.10;97.80
21678;DHT22;11000;50.360;7.582;2023-08-20T11:51:58;33.50;97.10
21678;DHT22;11000;50.360;7.582;2023-08-20T11:54:19;34.10;90.10
21678;DHT22;11000;50.360;7.582;2023-08-20T11:56:50;33.50;91.60
21678;DHT22;11000;50.360;7.582;2023-08-20T11:59:11;33.30;92.10
21678;DHT22;11000;50.360;7.582;2023-08-20T12:01:33;32.50;94.80
21678;DHT22;11000;50.360;7.582;2023-08-20T12:04:03;31.80;97.30
21678;DHT22;11000;50.360;7.582;2023-08-20T12:06:24;32.60;95.00
21678;DHT22;11000;50.360;7.582;2023-08-20T12:08:45;31.80;93.80
21678;DHT22;11000;50.360;7.582;2023-08-20T12:11:07;31.70;96.60
21678;DHT22;11000;50.360;7.582;2023-08-20T12:13:27;31.70;99.90
21678;DHT22;11000;50.360;7.582;2023-08-20T12:15:54;31.60;99.90
21678;DHT22;11000;50.360;7.582;2023-08-20T12:18:14;31.40;99.90
21678;DHT22;11000;50.360;7.582;2023-08-20T12:20:35;31.90;99.90
21678;DHT22;11000;50.360;7.582;2023-08-20T12:22:58;31.90;99.90
21678;DHT22;11000;50.360;7.582;2023-08-20T12:25:19;32.20;99.90
21678;DHT22;11000;50.360;7.582;2023-08-20T12:27:41;32.10;99.90
21678;DHT22;11000;50.360;7.582;2023-08-20T12:30:01;32.40;99.90
21678;DHT22;11000;50.360;7.582;2023-08-20T12:32:23;33.10;99.90
21678;DHT22;11000;50.360;7.582;2023-08-20T12:34:43;33.10;99.90
21678;DHT22;11000;50.360;7.582;2023-08-20T12:37:04;33.70;99.10
21678;DHT22;11000;50.360;7.582;2023-08-20T12:39:25;33.60;99.90
21678;DHT22;11000;50.360;7.582;2023-08-20T12:41:45;33.30;97.10
21678;DHT22;11000;50.360;7.582;2023-08-20T12:44:06;32.90;94.40
21678;DHT22;11000;50.360;7.582;2023-08-20T12:46:27;32.50;96.10
21678;DHT22;11000;50.360;7.582;2023-08-20T12:48:47;32.70;98.90
21678;DHT22;11000;50.360;7.582;2023-08-20T12:51:08;32.10;97.10
21678;DHT22;11000;50.360;7.582;2023-08-20T12:53:32;32.10;99.70
21678;DHT22;11000;50.360;7.582;2023-08-20T12:55:53;31.90;97.90
21678;DHT22;11000;50.360;7.582;2023-08-20T12:58:13;32.30;99.10
21678;DHT22;11000;50.360;7.582;2023-08-20T13:00:34;32.70;97.10
21678;DHT22;11000;50.360;7.582;2023-08-20T13:02:55;32.50;96.30
21678;DHT22;11000;50.360;7.582;2023-08-20T13:05:15;32.10;94.60
21678;DHT22;11000;50.360;7.582;2023-08-20T13:07:36;32.00;93.00
21678;DHT22;11000;50.360;7.582;2023-08-20T13:09:57;31.70;92.00
21678;DHT22;11000;50.360;7.582;2023-08-20T13:12:18;31.10;93.30
21678;DHT22;11000;50.360;7.582;2023-08-20T13:14:41;31.40;99.90
21678;DHT22;11000;50.360;7.582;2023-08-20T13:17:02;31.40;95.80
21678;DHT22;11000;50.360;7.582;2023-08-20T13:19:23;31.40;92.30
21678;DHT22;11000;50.360;7.582;2023-08-20T13:21:44;31.30;93.60
21678;DHT22;11000;50.360;7.582;2023-08-20T13:24:07;31.50;92.80
21678;DHT22;11000;50.360;7.582;2023-08-20T13:26:29;31.70;92.50
21678;DHT22;11000;50.360;7.582;2023-08-20T13:28:49;31.90;95.60
21678;DHT22;11000;50.360;7.582;2023-08-20T13:31:10;32.60;91.00
21678;DHT22;11000;50.360;7.582;2023-08-20T13:33:31;32.30;90.60
21678;DHT22;11000;50.360;7.582;2023-08-20T13:35:53;32.10;91.50
21678;DHT22;11000;50.360;7.582;2023-08-20T13:38:14;32.20;95.60
21678;DHT22;11000;50.360;7.582;2023-08-20T13:40:35;32.00;95.00
21678;DHT22;11000;50.360;7.582;2023-08-20T13:42:56;32.40;91.90
21678;DHT22;11000;50.360;7.582;2023-08-20T13:45:17;32.60;94.20
21678;DHT22;11000;50.360;7.582;2023-08-20T13:47:38;32.90;89.70
21678;DHT22;11000;50.360;7.582;2023-08-20T13:49:58;32.60;93.20
21678;DHT22;11000;50.360;7.582;2023-08-20T13:52:19;32.90;93.40
21678;DHT22;11000;50.360;7.582;2023-08-20T13:54:41;32.30;87.50
21678;DHT22;11000;50.360;7.582;2023-08-20T13:57:02;32.40;89.10
21678;DHT22;11000;50.360;7.582;2023-08-20T13:59:23;32.50;87.00
21678;DHT22;11000;50.360;7.582;2023-08-20T14:01:44;32.50;87.70
21678;DHT22;11000;50.360;7.582;2023-08-20T14:04:05;32.10;83.90
21678;DHT22;11000;50.360;7.582;2023-08-20T14:06:26;32.10;84.30
21678;DHT22;11000;50.360;7.582;2023-08-20T14:08:47;31.80;88.10
21678;DHT22;11000;50.360;7.582;2023-08-20T14:11:09;31.30;89.70
21678;DHT22;11000;50.360;7.582;2023-08-20T14:13:31;31.40;89.90
21678;DHT22;11000;50.360;7.582;2023-08-20T14:15:53;31.50;85.70
21678;DHT22;11000;50.360;7.582;2023-08-20T14:18:14;31.40;86.80
21678;DHT22;11000;50.360;7.582;2023-08-20T14:20:35;31.40;84.00
21678;DHT22;11000;50.360;7.582;2023-08-20T14:22:55;31.40;84.80
21678;DHT22;11000;50.360;7.582;2023-08-20T14:25:16;31.40;86.30
21678;DHT22;11000;50.360;7.582;2023-08-20T14:27:36;31.60;88.40
21678;DHT22;11000;50.360;7.582;2023-08-20T14:29:57;31.80;86.90
21678;DHT22;11000;50.360;7.582;2023-08-20T14:32:18;31.80;90.20
21678;DHT22;11000;50.360;7.582;2023-08-20T14:34:40;32.00;86.30
21678;DHT22;11000;50.360;7.582;2023-08-20T14:37:01;32.10;88.80
21678;DHT22;11000;50.360;7.582;2023-08-20T14:39:22;32.10;88.40
21678;DHT22;11000;50.360;7.582;2023-08-20T14:41:44;32.30;88.70
21678;DHT22;11000;50.360;7.582;2023-08-20T14:44:05;32.30;88.70
21678;DHT22;11000;50.360;7.582;2023-08-20T14:46:27;32.10;90.70
21678;DHT22;11000;50.360;7.582;2023-08-20T14:48:47;32.40;90.30
21678;DHT22;11000;50.360;7.582;2023-08-20T14:51:08;32.20;90.90
21678;DHT22;11000;50.360;7.582;2023-08-20T14:53:29;32.70;90.10
21678;DHT22;11000;50.360;7.582;2023-08-20T14:55:50;33.10;90.00
21678;DHT22;11000;50.360;7.582;2023-08-20T14:58:11;33.00;88.90
21678;DHT22;11000;50.360;7.582;2023-08-20T15:00:34;32.20;91.90